sensor_id;sensor_type;location;lat;lon;timestamp;P1;durP1;ratioP1;P2;durP2;ratioP2
73550;SDS011;61816;53.582;10.096;2024-03-08T00:01:30;52.60;;;24.08;;
73550;SDS011;61816;53.582;10.096;2024-03-08T00:03:55;53.42;;;25.20;;
73550;SDS011;61816;53.582;10.096;2024-03-08T00:06:20;50.92;;;24.38;;
73550;SDS011;61816;53.582;10.096;2024-03-08T00:08:46;45.63;;;23.58;;
73550;SDS011;61816;53.582;10.096;2024-03-08T00:11:11;47.28;;;23.15;;
73550;SDS011;61816;53.582;10.096;2024-03-08T00:13:36;47.88;;;22.45;;
73550;SDS011;61816;53.582;10.096;2024-03-08T00:16:01;52.05;;;25.00;;
73550;SDS011;61816;53.582;10.096;2024-03-08T00:18:27;49.50;;;24.10;;
73550;SDS011;61816;53.582;10.096;2024-03-08T00:20:52;52.45;;;25.33;;
73550;SDS011;61816;53.582;10.096;2024-03-08T00:23:18;51.05;;;23.83;;
73550;SDS011;61816;53.582;10.096;2024-03-08T00:25:43;47.58;;;23.98;;
73550;SDS011;61816;53.582;10.096;2024-03-08T00:28:08;50.70;;;24.15;;
73550;SDS011;61816;53.582;10.096;2024-03-08T00:30:33;56.28;;;24.23;;
73550;SDS011;61816;53.582;10.096;2024-03-08T00:32:59;48.85;;;23.85;;
73550;SDS011;61816;53.582;10.096;2024-03-08T00:35:25;56.28;;;24.98;;
73550;SDS011;61816;53.582;10.096;2024-03-08T00:37:50;58.80;;;26.63;;
73550;SDS011;61816;53.582;10.096;2024-03-08T00:40:16;51.42;;;24.85;;
73550;SDS011;61816;53.582;10.096;2024-03-08T00:42:44;54.47;;;24.73;;
73550;SDS011;61816;53.582;10.096;2024-03-08T00:45:10;60.75;;;26.30;;
73550;SDS011;61816;53.582;10.096;2024-03-08T00:47:35;56.17;;;27.30;;
73550;SDS011;61816;53.582;10.096;2024-03-08T00:50:00;55.95;;;26.88;;
73550;SDS011;61816;53.582;10.096;2024-03-08T00:52:29;57.45;;;25.98;;
73550;SDS011;61816;53.582;10.096;2024-03-08T00:54:54;57.90;;;25.77;;
73550;SDS011;61816;53.582;10.096;2024-03-08T00:57:19;51.00;;;25.40;;
73550;SDS011;61816;53.582;10.096;2024-03-08T00:59:46;50.90;;;24.33;;
73550;SDS011;61816;53.582;10.096;2024-03-08T01:02:14;58.47;;;24.48;;
73550;SDS011;61816;53.582;10.096;2024-03-08T01:04:39;48.42;;;25.98;;
73550;SDS011;61816;53.582;10.096;2024-03-08T01:07:04;48.78;;;23.55;;
73550;SDS011;61816;53.582;10.096;2024-03-08T01:09:30;51.85;;;25.75;;
73550;SDS011;61816;53.582;10.096;2024-03-08T01:11:56;59.42;;;27.05;;
73550;SDS011;61816;53.582;10.096;2024-03-08T01:14:21;55.83;;;27.65;;
73550;SDS011;61816;53.582;10.096;2024-03-08T01:16:59;57.10;;;24.17;;
73550;SDS011;61816;53.582;10.096;2024-03-08T01:19:24;54.22;;;26.15;;
73550;SDS011;61816;53.582;10.096;2024-03-08T01:21:50;49.05;;;23.85;;
73550;SDS011;61816;53.582;10.096;2024-03-08T01:24:15;50.50;;;24.33;;
73550;SDS011;61816;53.582;10.096;2024-03-08T01:26:40;73.20;;;38.20;;
73550;SDS011;61816;53.582;10.096;2024-03-08T01:29:05;96.30;;;45.05;;
73550;SDS011;61816;53.582;10.096;2024-03-08T01:31:31;57.80;;;26.38;;
73550;SDS011;61816;53.582;10.096;2024-03-08T01:33:56;60.25;;;26.77;;
73550;SDS011;61816;53.582;10.096;2024-03-08T01:36:22;60.13;;;28.83;;
73550;SDS011;61816;53.582;10.096;2024-03-08T01:38:47;57.38;;;26.38;;
73550;SDS011;61816;53.582;10.096;2024-03-08T01:41:12;65.97;;;28.73;;
73550;SDS011;61816;53.582;10.096;2024-03-08T01:43:39;55.70;;;24.60;;
73550;SDS011;61816;53.582;10.096;2024-03-08T01:46:04;60.08;;;25.17;;
73550;SDS011;61816;53.582;10.096;2024-03-08T01:48:30;61.35;;;28.33;;
73550;SDS011;61816;53.582;10.096;2024-03-08T01:50:56;62.78;;;28.17;;
73550;SDS011;61816;53.582;10.096;2024-03-08T01:53:22;51.20;;;25.30;;
73550;SDS011;61816;53.582;10.096;2024-03-08T01:55:48;55.30;;;26.75;;
73550;SDS011;61816;53.582;10.096;2024-03-08T01:58:14;61.80;;;27.40;;
73550;SDS011;61816;53.582;10.096;2024-03-08T02:00:41;61.55;;;28.27;;
73550;SDS011;61816;53.582;10.096;2024-03-08T02:03:07;52.42;;;24.63;;
73550;SDS011;61816;53.582;10.096;2024-03-08T02:05:32;62.92;;;30.13;;
73550;SDS011;61816;53.582;10.096;2024-03-08T02:07:57;52.80;;;25.80;;
73550;SDS011;61816;53.582;10.096;2024-03-08T02:10:23;66.13;;;27.27;;
73550;SDS011;61816;53.582;10.096;2024-03-08T02:13:09;64.28;;;28.77;;
73550;SDS011;61816;53.582;10.096;2024-03-08T02:15:49;57.58;;;25.75;;
73550;SDS011;61816;53.582;10.096;2024-03-08T02:18:15;58.25;;;25.63;;
73550;SDS011;61816;53.582;10.096;2024-03-08T02:20:40;63.92;;;28.10;;
73550;SDS011;61816;53.582;10.096;2024-03-08T02:23:05;64.22;;;27.83;;
73550;SDS011;61816;53.582;10.096;2024-03-08T02:25:30;62.22;;;28.77;;
73550;SDS011;61816;53.582;10.096;2024-03-08T02:27:56;57.28;;;26.27;;
73550;SDS011;61816;53.582;10.096;2024-03-08T02:30:21;66.95;;;28.85;;
73550;SDS011;61816;53.582;10.096;2024-03-08T02:32:46;62.72;;;29.92;;
73550;SDS011;61816;53.582;10.096;2024-03-08T02:35:11;62.70;;;30.67;;
73550;SDS011;61816;53.582;10.096;2024-03-08T02:37:37;72.57;;;29.95;;
73550;SDS011;61816;53.582;10.096;2024-03-08T02:40:03;67.57;;;29.37;;
73550;SDS011;61816;53.582;10.096;2024-03-08T02:42:31;62.22;;;28.77;;
73550;SDS011;61816;53.582;10.096;2024-03-08T02:44:56;63.13;;;27.95;;
73550;SDS011;61816;53.582;10.096;2024-03-08T02:47:21;64.53;;;26.88;;
73550;SDS011;61816;53.582;10.096;2024-03-08T02:49:46;60.40;;;28.67;;
73550;SDS011;61816;53.582;10.096;2024-03-08T02:52:14;68.28;;;29.33;;
73550;SDS011;61816;53.582;10.096;2024-03-08T02:54:41;65.40;;;29.05;;
73550;SDS011;61816;53.582;10.096;2024-03-08T02:57:06;64.18;;;28.48;;
73550;SDS011;61816;53.582;10.096;2024-03-08T02:59:32;70.25;;;31.52;;
73550;SDS011;61816;53.582;10.096;2024-03-08T03:01:58;70.63;;;29.02;;
73550;SDS011;61816;53.582;10.096;2024-03-08T03:04:23;72.97;;;31.75;;
73550;SDS011;61816;53.582;10.096;2024-03-08T03:06:48;61.92;;;29.67;;
73550;SDS011;61816;53.582;10.096;2024-03-08T03:09:14;69.10;;;28.60;;
73550;SDS011;61816;53.582;10.096;2024-03-08T03:11:43;78.90;;;33.50;;
73550;SDS011;61816;53.582;10.096;2024-03-08T03:14:09;75.28;;;32.13;;
73550;SDS011;61816;53.582;10.096;2024-03-08T03:16:34;72.77;;;32.93;;
73550;SDS011;61816;53.582;10.096;2024-03-08T03:18:59;69.87;;;29.60;;
73550;SDS011;61816;53.582;10.096;2024-03-08T03:21:28;71.87;;;30.67;;
73550;SDS011;61816;53.582;10.096;2024-03-08T03:23:53;77.35;;;32.90;;
73550;SDS011;61816;53.582;10.096;2024-03-08T03:26:18;75.57;;;32.90;;
73550;SDS011;61816;53.582;10.096;2024-03-08T03:28:44;78.87;;;32.27;;
73550;SDS011;61816;53.582;10.096;2024-03-08T03:31:09;84.55;;;35.20;;
73550;SDS011;61816;53.582;10.096;2024-03-08T03:33:39;77.50;;;32.30;;
73550;SDS011;61816;53.582;10.096;2024-03-08T03:36:04;66.28;;;28.30;;
73550;SDS011;61816;53.582;10.096;2024-03-08T03:38:34;76.60;;;32.13;;
73550;SDS011;61816;53.582;10.096;2024-03-08T03:41:00;84.43;;;34.33;;
73550;SDS011;61816;53.582;10.096;2024-03-08T03:43:35;87.10;;;32.53;;
73550;SDS011;61816;53.582;10.096;2024-03-08T03:46:00;72.87;;;32.07;;
73550;SDS011;61816;53.582;10.096;2024-03-08T03:48:26;90.87;;;33.67;;
73550;SDS011;61816;53.582;10.096;2024-03-08T03:50:51;65.83;;;29.23;;
73550;SDS011;61816;53.582;10.096;2024-03-08T03:53:16;80.30;;;32.07;;
73550;SDS011;61816;53.582;10.096;2024-03-08T03:55:41;80.65;;;33.47;;
73550;SDS011;61816;53.582;10.096;2024-03-08T03:58:08;80.63;;;32.00;;
73550;SDS011;61816;53.582;10.096;2024-03-08T04:00:34;85.90;;;35.22;;
73550;SDS011;61816;53.582;10.096;2024-03-08T04:03:00;76.20;;;30.33;;
73550;SDS011;61816;53.582;10.096;2024-03-08T04:05:26;76.17;;;33.33;;
73550;SDS011;61816;53.582;10.096;2024-03-08T04:07:51;83.13;;;33.03;;
73550;SDS011;61816;53.582;10.096;2024-03-08T04:10:17;85.75;;;35.28;;
73550;SDS011;61816;53.582;10.096;2024-03-08T04:12:42;85.60;;;34.27;;
73550;SDS011;61816;53.582;10.096;2024-03-08T04:15:07;86.03;;;32.63;;
73550;SDS011;61816;53.582;10.096;2024-03-08T04:17:33;80.00;;;33.07;;
73550;SDS011;61816;53.582;10.096;2024-03-08T04:20:02;75.30;;;32.03;;
73550;SDS011;61816;53.582;10.096;2024-03-08T04:22:29;73.67;;;30.70;;
73550;SDS011;61816;53.582;10.096;2024-03-08T04:24:55;76.50;;;32.77;;
73550;SDS011;61816;53.582;10.096;2024-03-08T04:27:20;73.40;;;32.97;;
73550;SDS011;61816;53.582;10.096;2024-03-08T04:29:45;86.47;;;34.73;;
73550;SDS011;61816;53.582;10.096;2024-03-08T04:32:11;102.70;;;36.70;;
73550;SDS011;61816;53.582;10.096;2024-03-08T04:34:38;74.40;;;31.40;;
73550;SDS011;61816;53.582;10.096;2024-03-08T04:37:04;74.53;;;29.67;;
73550;SDS011;61816;53.582;10.096;2024-03-08T04:39:29;82.33;;;33.90;;
73550;SDS011;61816;53.582;10.096;2024-03-08T04:41:56;73.88;;;30.65;;
73550;SDS011;61816;53.582;10.096;2024-03-08T04:44:23;83.63;;;36.33;;
73550;SDS011;61816;53.582;10.096;2024-03-08T04:46:49;89.40;;;37.53;;
73550;SDS011;61816;53.582;10.096;2024-03-08T04:49:14;80.23;;;34.47;;
73550;SDS011;61816;53.582;10.096;2024-03-08T04:51:40;85.13;;;33.30;;
73550;SDS011;61816;53.582;10.096;2024-03-08T04:54:05;88.37;;;36.13;;
73550;SDS011;61816;53.582;10.096;2024-03-08T04:56:30;84.97;;;35.63;;
73550;SDS011;61816;53.582;10.096;2024-03-08T04:58:56;90.23;;;34.03;;
73550;SDS011;61816;53.582;10.096;2024-03-08T05:01:21;82.83;;;33.70;;
73550;SDS011;61816;53.582;10.096;2024-03-08T05:03:47;93.30;;;35.70;;
73550;SDS011;61816;53.582;10.096;2024-03-08T05:06:15;101.37;;;38.20;;
73550;SDS011;61816;53.582;10.096;2024-03-08T05:08:43;85.30;;;32.27;;
73550;SDS011;61816;53.582;10.096;2024-03-08T05:11:08;80.93;;;34.33;;
73550;SDS011;61816;53.582;10.096;2024-03-08T05:13:34;88.33;;;34.53;;
73550;SDS011;61816;53.582;10.096;2024-03-08T05:15:59;82.50;;;35.27;;
73550;SDS011;61816;53.582;10.096;2024-03-08T05:18:25;88.47;;;35.73;;
73550;SDS011;61816;53.582;10.096;2024-03-08T05:20:50;89.67;;;35.27;;
73550;SDS011;61816;53.582;10.096;2024-03-08T05:23:16;82.87;;;36.27;;
73550;SDS011;61816;53.582;10.096;2024-03-08T05:25:44;85.80;;;31.57;;
73550;SDS011;61816;53.582;10.096;2024-03-08T05:28:10;89.13;;;35.43;;
73550;SDS011;61816;53.582;10.096;2024-03-08T05:30:35;88.50;;;35.00;;
73550;SDS011;61816;53.582;10.096;2024-03-08T05:33:01;74.73;;;33.83;;
73550;SDS011;61816;53.582;10.096;2024-03-08T05:35:26;90.77;;;36.90;;
73550;SDS011;61816;53.582;10.096;2024-03-08T05:37:51;80.83;;;34.27;;
73550;SDS011;61816;53.582;10.096;2024-03-08T05:40:17;77.93;;;34.53;;
73550;SDS011;61816;53.582;10.096;2024-03-08T05:42:42;92.13;;;36.80;;
73550;SDS011;61816;53.582;10.096;2024-03-08T05:45:07;93.17;;;34.90;;
73550;SDS011;61816;53.582;10.096;2024-03-08T05:47:33;73.20;;;33.03;;
73550;SDS011;61816;53.582;10.096;2024-03-08T05:49:58;87.23;;;35.23;;
73550;SDS011;61816;53.582;10.096;2024-03-08T05:52:24;83.93;;;34.20;;
73550;SDS011;61816;53.582;10.096;2024-03-08T05:54:50;81.13;;;34.47;;
73550;SDS011;61816;53.582;10.096;2024-03-08T05:57:16;82.03;;;34.90;;
73550;SDS011;61816;53.582;10.096;2024-03-08T05:59:42;83.47;;;34.23;;
73550;SDS011;61816;53.582;10.096;2024-03-08T06:02:07;80.50;;;33.70;;
73550;SDS011;61816;53.582;10.096;2024-03-08T06:04:32;89.73;;;35.07;;
73550;SDS011;61816;53.582;10.096;2024-03-08T06:06:58;94.13;;;36.93;;
73550;SDS011;61816;53.582;10.096;2024-03-08T06:09:31;93.27;;;35.73;;
73550;SDS011;61816;53.582;10.096;2024-03-08T06:11:56;83.30;;;34.03;;
73550;SDS011;61816;53.582;10.096;2024-03-08T06:14:22;90.13;;;34.50;;
73550;SDS011;61816;53.582;10.096;2024-03-08T06:16:48;96.20;;;38.27;;
73550;SDS011;61816;53.582;10.096;2024-03-08T06:19:15;83.07;;;33.67;;
73550;SDS011;61816;53.582;10.096;2024-03-08T06:21:43;86.23;;;35.33;;
73550;SDS011;61816;53.582;10.096;2024-03-08T06:24:11;83.57;;;34.13;;
73550;SDS011;61816;53.582;10.096;2024-03-08T06:26:37;93.47;;;36.27;;
73550;SDS011;61816;53.582;10.096;2024-03-08T06:29:02;70.10;;;33.47;;
73550;SDS011;61816;53.582;10.096;2024-03-08T06:31:31;79.23;;;34.60;;
73550;SDS011;61816;53.582;10.096;2024-03-08T06:33:57;76.17;;;35.47;;
73550;SDS011;61816;53.582;10.096;2024-03-08T06:36:22;80.67;;;35.33;;
73550;SDS011;61816;53.582;10.096;2024-03-08T06:38:48;86.90;;;36.37;;
73550;SDS011;61816;53.582;10.096;2024-03-08T06:41:13;82.37;;;33.77;;
73550;SDS011;61816;53.582;10.096;2024-03-08T06:43:44;97.93;;;35.23;;
73550;SDS011;61816;53.582;10.096;2024-03-08T06:46:10;77.47;;;36.10;;
73550;SDS011;61816;53.582;10.096;2024-03-08T06:48:37;85.97;;;36.63;;
73550;SDS011;61816;53.582;10.096;2024-03-08T06:51:03;88.40;;;36.10;;
73550;SDS011;61816;53.582;10.096;2024-03-08T06:53:29;82.00;;;34.72;;
73550;SDS011;61816;53.582;10.096;2024-03-08T06:55:54;74.45;;;33.22;;
73550;SDS011;61816;53.582;10.096;2024-03-08T06:58:19;81.03;;;35.67;;
73550;SDS011;61816;53.582;10.096;2024-03-08T07:00:45;77.80;;;34.37;;
73550;SDS011;61816;53.582;10.096;2024-03-08T07:03:10;84.97;;;34.88;;
73550;SDS011;61816;53.582;10.096;2024-03-08T07:05:37;78.57;;;35.40;;
73550;SDS011;61816;53.582;10.096;2024-03-08T07:08:03;81.35;;;33.90;;
73550;SDS011;61816;53.582;10.096;2024-03-08T07:10:28;79.97;;;34.85;;
73550;SDS011;61816;53.582;10.096;2024-03-08T07:12:54;68.47;;;32.30;;
73550;SDS011;61816;53.582;10.096;2024-03-08T07:15:19;79.45;;;32.33;;
73550;SDS011;61816;53.582;10.096;2024-03-08T07:17:45;71.87;;;33.13;;
73550;SDS011;61816;53.582;10.096;2024-03-08T07:20:10;74.82;;;34.30;;
73550;SDS011;61816;53.582;10.096;2024-03-08T07:22:37;80.97;;;33.13;;
73550;SDS011;61816;53.582;10.096;2024-03-08T07:25:04;77.45;;;33.50;;
73550;SDS011;61816;53.582;10.096;2024-03-08T07:27:33;78.53;;;33.70;;
73550;SDS011;61816;53.582;10.096;2024-03-08T07:29:59;69.70;;;31.42;;
73550;SDS011;61816;53.582;10.096;2024-03-08T07:32:25;70.72;;;32.65;;
73550;SDS011;61816;53.582;10.096;2024-03-08T07:34:53;70.15;;;34.60;;
73550;SDS011;61816;53.582;10.096;2024-03-08T07:37:20;66.43;;;31.45;;
73550;SDS011;61816;53.582;10.096;2024-03-08T07:39:45;69.63;;;32.78;;
73550;SDS011;61816;53.582;10.096;2024-03-08T07:42:11;65.85;;;33.45;;
73550;SDS011;61816;53.582;10.096;2024-03-08T07:44:37;68.75;;;33.28;;
73550;SDS011;61816;53.582;10.096;2024-03-08T07:47:02;57.40;;;29.27;;
73550;SDS011;61816;53.582;10.096;2024-03-08T07:49:28;70.05;;;32.42;;
73550;SDS011;61816;53.582;10.096;2024-03-08T07:51:54;74.45;;;31.30;;
73550;SDS011;61816;53.582;10.096;2024-03-08T07:54:19;61.35;;;30.40;;
73550;SDS011;61816;53.582;10.096;2024-03-08T07:56:45;67.53;;;33.47;;
73550;SDS011;61816;53.582;10.096;2024-03-08T07:59:10;64.25;;;31.23;;
73550;SDS011;61816;53.582;10.096;2024-03-08T08:01:37;71.50;;;32.75;;
73550;SDS011;61816;53.582;10.096;2024-03-08T08:04:02;64.82;;;32.80;;
73550;SDS011;61816;53.582;10.096;2024-03-08T08:06:27;67.72;;;32.33;;
73550;SDS011;61816;53.582;10.096;2024-03-08T08:08:56;63.10;;;31.30;;
73550;SDS011;61816;53.582;10.096;2024-03-08T08:11:22;61.20;;;30.92;;
73550;SDS011;61816;53.582;10.096;2024-03-08T08:13:47;59.13;;;30.63;;
73550;SDS011;61816;53.582;10.096;2024-03-08T08:16:13;64.43;;;32.80;;
73550;SDS011;61816;53.582;10.096;2024-03-08T08:18:38;64.10;;;31.33;;
73550;SDS011;61816;53.582;10.096;2024-03-08T08:21:04;65.75;;;31.63;;
73550;SDS011;61816;53.582;10.096;2024-03-08T08:23:31;62.83;;;32.47;;
73550;SDS011;61816;53.582;10.096;2024-03-08T08:25:56;66.40;;;30.98;;
73550;SDS011;61816;53.582;10.096;2024-03-08T08:28:21;60.95;;;31.95;;
73550;SDS011;61816;53.582;10.096;2024-03-08T08:30:47;60.95;;;30.90;;
73550;SDS011;61816;53.582;10.096;2024-03-08T08:33:14;62.28;;;32.65;;
73550;SDS011;61816;53.582;10.096;2024-03-08T08:35:39;65.03;;;32.70;;
73550;SDS011;61816;53.582;10.096;2024-03-08T08:38:04;70.97;;;34.95;;
73550;SDS011;61816;53.582;10.096;2024-03-08T08:40:29;55.45;;;30.33;;
73550;SDS011;61816;53.582;10.096;2024-03-08T08:42:57;58.85;;;29.05;;
73550;SDS011;61816;53.582;10.096;2024-03-08T08:45:22;60.75;;;29.35;;
73550;SDS011;61816;53.582;10.096;2024-03-08T08:47:48;63.13;;;31.13;;
73550;SDS011;61816;53.582;10.096;2024-03-08T08:50:14;59.47;;;29.80;;
73550;SDS011;61816;53.582;10.096;2024-03-08T08:52:41;60.63;;;30.08;;
73550;SDS011;61816;53.582;10.096;2024-03-08T08:55:08;57.65;;;29.70;;
73550;SDS011;61816;53.582;10.096;2024-03-08T08:57:34;54.63;;;29.25;;
73550;SDS011;61816;53.582;10.096;2024-03-08T09:00:00;55.22;;;30.20;;
73550;SDS011;61816;53.582;10.096;2024-03-08T09:02:25;59.55;;;29.42;;
73550;SDS011;61816;53.582;10.096;2024-03-08T09:04:51;61.67;;;29.20;;
73550;SDS011;61816;53.582;10.096;2024-03-08T09:07:16;56.60;;;29.23;;
73550;SDS011;61816;53.582;10.096;2024-03-08T09:09:44;55.42;;;30.70;;
73550;SDS011;61816;53.582;10.096;2024-03-08T09:12:09;61.28;;;30.00;;
73550;SDS011;61816;53.582;10.096;2024-03-08T09:14:38;56.60;;;29.30;;
73550;SDS011;61816;53.582;10.096;2024-03-08T09:17:03;56.72;;;28.17;;
73550;SDS011;61816;53.582;10.096;2024-03-08T09:19:29;55.92;;;28.50;;
73550;SDS011;61816;53.582;10.096;2024-03-08T09:21:54;60.30;;;30.98;;
73550;SDS011;61816;53.582;10.096;2024-03-08T09:24:20;55.55;;;28.65;;
73550;SDS011;61816;53.582;10.096;2024-03-08T09:26:45;58.20;;;27.65;;
73550;SDS011;61816;53.582;10.096;2024-03-08T09:29:11;54.92;;;28.75;;
73550;SDS011;61816;53.582;10.096;2024-03-08T09:31:36;51.72;;;29.27;;
73550;SDS011;61816;53.582;10.096;2024-03-08T09:34:03;47.90;;;26.42;;
73550;SDS011;61816;53.582;10.096;2024-03-08T09:36:28;51.33;;;28.38;;
73550;SDS011;61816;53.582;10.096;2024-03-08T09:38:53;49.08;;;26.60;;
73550;SDS011;61816;53.582;10.096;2024-03-08T09:41:19;55.67;;;26.33;;
73550;SDS011;61816;53.582;10.096;2024-03-08T09:43:44;48.83;;;25.13;;
73550;SDS011;61816;53.582;10.096;2024-03-08T09:46:10;47.22;;;25.83;;
73550;SDS011;61816;53.582;10.096;2024-03-08T09:48:36;45.60;;;25.63;;
73550;SDS011;61816;53.582;10.096;2024-03-08T09:51:02;51.55;;;26.98;;
73550;SDS011;61816;53.582;10.096;2024-03-08T09:53:28;46.17;;;25.23;;
73550;SDS011;61816;53.582;10.096;2024-03-08T09:55:53;51.97;;;27.45;;
73550;SDS011;61816;53.582;10.096;2024-03-08T09:58:18;46.53;;;26.15;;
73550;SDS011;61816;53.582;10.096;2024-03-08T10:00:53;52.22;;;23.75;;
73550;SDS011;61816;53.582;10.096;2024-03-08T10:03:19;48.78;;;27.33;;
73550;SDS011;61816;53.582;10.096;2024-03-08T10:05:44;50.45;;;26.83;;
73550;SDS011;61816;53.582;10.096;2024-03-08T10:08:09;44.08;;;25.60;;
73550;SDS011;61816;53.582;10.096;2024-03-08T10:10:36;43.25;;;26.60;;
73550;SDS011;61816;53.582;10.096;2024-03-08T10:13:02;44.13;;;25.42;;
73550;SDS011;61816;53.582;10.096;2024-03-08T10:15:30;48.28;;;25.45;;
73550;SDS011;61816;53.582;10.096;2024-03-08T10:17:58;47.80;;;24.90;;
73550;SDS011;61816;53.582;10.096;2024-03-08T10:20:23;52.38;;;25.92;;
73550;SDS011;61816;53.582;10.096;2024-03-08T10:22:49;54.90;;;25.80;;
73550;SDS011;61816;53.582;10.096;2024-03-08T10:25:14;52.83;;;26.63;;
73550;SDS011;61816;53.582;10.096;2024-03-08T10:27:39;45.85;;;25.75;;
73550;SDS011;61816;53.582;10.096;2024-03-08T10:30:06;43.92;;;24.45;;
73550;SDS011;61816;53.582;10.096;2024-03-08T10:32:33;38.78;;;21.90;;
73550;SDS011;61816;53.582;10.096;2024-03-08T10:34:58;48.05;;;21.98;;
73550;SDS011;61816;53.582;10.096;2024-03-08T10:37:24;47.03;;;23.75;;
73550;SDS011;61816;53.582;10.096;2024-03-08T10:40:02;42.53;;;22.30;;
73550;SDS011;61816;53.582;10.096;2024-03-08T10:42:35;38.63;;;22.60;;
73550;SDS011;61816;53.582;10.096;2024-03-08T10:45:10;43.88;;;23.48;;
73550;SDS011;61816;53.582;10.096;2024-03-08T10:47:40;48.55;;;22.35;;
73550;SDS011;61816;53.582;10.096;2024-03-08T10:50:17;45.58;;;22.00;;
73550;SDS011;61816;53.582;10.096;2024-03-08T10:52:48;38.72;;;21.23;;
73550;SDS011;61816;53.582;10.096;2024-03-08T10:55:13;42.78;;;24.15;;
73550;SDS011;61816;53.582;10.096;2024-03-08T10:57:40;43.35;;;22.52;;
73550;SDS011;61816;53.582;10.096;2024-03-08T11:00:06;35.08;;;21.52;;
73550;SDS011;61816;53.582;10.096;2024-03-08T11:02:35;42.08;;;23.33;;
73550;SDS011;61816;53.582;10.096;2024-03-08T11:05:00;44.50;;;19.85;;
73550;SDS011;61816;53.582;10.096;2024-03-08T11:07:27;39.60;;;22.48;;
73550;SDS011;61816;53.582;10.096;2024-03-08T11:09:54;37.63;;;21.13;;
73550;SDS011;61816;53.582;10.096;2024-03-08T11:14:47;42.40;;;22.90;;
73550;SDS011;61816;53.582;10.096;2024-03-08T11:17:16;43.47;;;20.65;;
73550;SDS011;61816;53.582;10.096;2024-03-08T11:19:46;32.72;;;20.38;;
73550;SDS011;61816;53.582;10.096;2024-03-08T11:22:13;37.60;;;20.58;;
73550;SDS011;61816;53.582;10.096;2024-03-08T11:24:45;34.30;;;19.63;;
73550;SDS011;61816;53.582;10.096;2024-03-08T11:27:10;37.35;;;20.27;;
73550;SDS011;61816;53.582;10.096;2024-03-08T11:29:36;34.47;;;20.70;;
73550;SDS011;61816;53.582;10.096;2024-03-08T11:34:31;38.05;;;20.60;;
73550;SDS011;61816;53.582;10.096;2024-03-08T11:36:58;33.55;;;19.30;;
73550;SDS011;61816;53.582;10.096;2024-03-08T11:39:23;34.17;;;20.58;;
73550;SDS011;61816;53.582;10.096;2024-03-08T11:41:49;40.10;;;20.80;;
73550;SDS011;61816;53.582;10.096;2024-03-08T11:44:14;34.50;;;20.08;;
73550;SDS011;61816;53.582;10.096;2024-03-08T11:46:42;32.05;;;17.95;;
73550;SDS011;61816;53.582;10.096;2024-03-08T11:49:12;36.17;;;18.20;;
73550;SDS011;61816;53.582;10.096;2024-03-08T11:51:37;49.50;;;19.23;;
73550;SDS011;61816;53.582;10.096;2024-03-08T11:54:02;36.13;;;19.25;;
73550;SDS011;61816;53.582;10.096;2024-03-08T11:56:28;37.22;;;18.13;;
73550;SDS011;61816;53.582;10.096;2024-03-08T11:58:54;33.13;;;18.80;;
73550;SDS011;61816;53.582;10.096;2024-03-08T12:01:23;33.67;;;17.52;;
73550;SDS011;61816;53.582;10.096;2024-03-08T12:03:52;35.45;;;19.20;;
73550;SDS011;61816;53.582;10.096;2024-03-08T12:06:17;46.88;;;19.77;;
73550;SDS011;61816;53.582;10.096;2024-03-08T12:08:43;33.50;;;20.42;;
73550;SDS011;61816;53.582;10.096;2024-03-08T12:11:14;31.45;;;18.27;;
73550;SDS011;61816;53.582;10.096;2024-03-08T12:13:39;35.40;;;18.95;;
73550;SDS011;61816;53.582;10.096;2024-03-08T12:16:06;35.95;;;18.48;;
73550;SDS011;61816;53.582;10.096;2024-03-08T12:18:35;37.22;;;19.48;;
73550;SDS011;61816;53.582;10.096;2024-03-08T12:21:04;29.95;;;17.65;;
73550;SDS011;61816;53.582;10.096;2024-03-08T12:23:31;31.88;;;18.80;;
73550;SDS011;61816;53.582;10.096;2024-03-08T12:25:56;29.70;;;18.90;;
73550;SDS011;61816;53.582;10.096;2024-03-08T12:28:22;33.15;;;18.65;;
73550;SDS011;61816;53.582;10.096;2024-03-08T12:30:48;34.58;;;19.08;;
73550;SDS011;61816;53.582;10.096;2024-03-08T12:33:13;32.63;;;18.73;;
73550;SDS011;61816;53.582;10.096;2024-03-08T12:35:39;41.17;;;18.20;;
73550;SDS011;61816;53.582;10.096;2024-03-08T12:38:04;36.78;;;20.42;;
73550;SDS011;61816;53.582;10.096;2024-03-08T12:40:32;34.75;;;19.58;;
73550;SDS011;61816;53.582;10.096;2024-03-08T12:42:59;33.03;;;20.10;;
73550;SDS011;61816;53.582;10.096;2024-03-08T12:45:24;29.23;;;17.58;;
73550;SDS011;61816;53.582;10.096;2024-03-08T12:47:50;31.63;;;17.60;;
73550;SDS011;61816;53.582;10.096;2024-03-08T12:50:16;33.67;;;18.63;;
73550;SDS011;61816;53.582;10.096;2024-03-08T12:52:42;30.90;;;16.98;;
73550;SDS011;61816;53.582;10.096;2024-03-08T12:55:07;33.17;;;16.45;;
73550;SDS011;61816;53.582;10.096;2024-03-08T12:57:33;35.13;;;17.75;;
73550;SDS011;61816;53.582;10.096;2024-03-08T13:00:00;34.70;;;17.60;;
73550;SDS011;61816;53.582;10.096;2024-03-08T13:02:25;38.78;;;19.33;;
73550;SDS011;61816;53.582;10.096;2024-03-08T13:04:51;35.78;;;18.67;;
73550;SDS011;61816;53.582;10.096;2024-03-08T13:07:22;33.28;;;17.98;;
73550;SDS011;61816;53.582;10.096;2024-03-08T13:09:48;32.90;;;18.70;;
73550;SDS011;61816;53.582;10.096;2024-03-08T13:12:17;33.53;;;19.27;;
73550;SDS011;61816;53.582;10.096;2024-03-08T13:14:42;34.22;;;19.30;;
73550;SDS011;61816;53.582;10.096;2024-03-08T13:17:08;31.38;;;19.08;;
73550;SDS011;61816;53.582;10.096;2024-03-08T13:19:36;34.13;;;20.33;;
73550;SDS011;61816;53.582;10.096;2024-03-08T13:22:03;37.28;;;18.55;;
73550;SDS011;61816;53.582;10.096;2024-03-08T13:24:32;37.88;;;19.20;;
73550;SDS011;61816;53.582;10.096;2024-03-08T13:26:58;30.83;;;18.27;;
73550;SDS011;61816;53.582;10.096;2024-03-08T13:29:25;29.23;;;15.25;;
73550;SDS011;61816;53.582;10.096;2024-03-08T13:31:50;33.50;;;17.67;;
73550;SDS011;61816;53.582;10.096;2024-03-08T13:34:17;30.42;;;15.45;;
73550;SDS011;61816;53.582;10.096;2024-03-08T13:36:42;31.50;;;16.77;;
73550;SDS011;61816;53.582;10.096;2024-03-08T13:39:09;28.90;;;16.88;;
73550;SDS011;61816;53.582;10.096;2024-03-08T13:41:43;26.15;;;15.60;;
73550;SDS011;61816;53.582;10.096;2024-03-08T13:44:09;32.05;;;16.23;;
73550;SDS011;61816;53.582;10.096;2024-03-08T13:46:35;28.60;;;15.52;;
73550;SDS011;61816;53.582;10.096;2024-03-08T13:49:05;31.25;;;15.82;;
73550;SDS011;61816;53.582;10.096;2024-03-08T13:51:32;39.05;;;18.33;;
73550;SDS011;61816;53.582;10.096;2024-03-08T13:53:58;27.33;;;16.98;;
73550;SDS011;61816;53.582;10.096;2024-03-08T13:56:25;28.58;;;16.00;;
73550;SDS011;61816;53.582;10.096;2024-03-08T13:58:51;27.17;;;17.02;;
73550;SDS011;61816;53.582;10.096;2024-03-08T14:01:16;28.90;;;15.88;;
73550;SDS011;61816;53.582;10.096;2024-03-08T14:03:42;47.08;;;16.35;;
73550;SDS011;61816;53.582;10.096;2024-03-08T14:06:07;26.77;;;17.13;;
73550;SDS011;61816;53.582;10.096;2024-03-08T14:08:32;29.00;;;15.27;;